Time;durP1;ratioP1;P1;durP2;ratioP2;P2;SDS_P1;SDS_P2;PMS_P1;PMS_P2;Temp;Humidity;BMP_temperature;BMP_pressure;BME280_temperature;BME280_humidity;BME280_pressure;Samples;Min_cycle;Max_cycle;Signal;HPM_P1;HPM_P2
2022/11/03 00:00:35;;;;;;;1.40;1.30;;;11.30;99.90;;;;;;5073480;28;20218;-77
2022/11/03 00:03:02;;;;;;;0.50;0.50;;;11.40;99.90;;;;;;5073810;28;20671;-77
2022/11/03 00:08:14;;;;;;;0.50;0.40;;;11.40;99.90;;;;;;5074585;28;20315;-77
2022/11/03 00:10:41;;;;;;;0.68;0.40;;;11.40;99.90;;;;;;5074375;28;20924;-77
2022/11/03 00:13:07;;;;;;;0.73;0.40;;;11.40;99.90;;;;;;5073914;28;20213;-77
2022/11/03 00:15:34;;;;;;;0.50;0.40;;;11.50;99.90;;;;;;5073377;28;20200;-77
2022/11/03 00:18:01;;;;;;;0.50;0.40;;;11.50;99.90;;;;;;5072735;28;20201;-77
2022/11/03 00:20:28;;;;;;;0.50;0.40;;;11.50;99.90;;;;;;5072165;28;20194;-77
2022/11/03 00:22:55;;;;;;;2.58;1.23;;;11.50;99.90;;;;;;5071682;28;20213;-77
2022/11/03 00:25:24;;;;;;;0.50;0.40;;;11.60;99.90;;;;;;5071722;28;20280;-77
2022/11/03 00:27:55;;;;;;;2.35;0.80;;;11.60;99.90;;;;;;5072274;28;21025;-77
2022/11/03 00:30:22;;;;;;;0.60;0.50;;;11.60;99.90;;;;;;5071997;28;20193;-77
2022/11/03 00:32:49;;;;;;;0.50;0.40;;;11.60;99.90;;;;;;5072125;28;20241;-78
2022/11/03 00:35:16;;;;;;;4.25;2.33;;;11.60;99.90;;;;;;5071951;28;20198;-77
2022/11/03 00:37:43;;;;;;;4.63;1.00;;;11.60;99.90;;;;;;5072142;28;20194;-77
2022/11/03 00:40:11;;;;;;;0.90;0.90;;;11.70;99.90;;;;;;5072141;28;20440;-77
2022/11/03 00:42:39;;;;;;;0.60;0.50;;;11.60;99.90;;;;;;5072404;28;20201;-77
2022/11/03 00:45:07;;;;;;;0.50;0.40;;;11.60;99.90;;;;;;5071742;28;20232;-77
2022/11/03 00:47:33;;;;;;;58.85;1.77;;;11.70;99.90;;;;;;5071361;28;20194;-77
2022/11/03 00:50:00;;;;;;;0.60;0.40;;;11.60;99.90;;;;;;5071740;28;20200;-77
2022/11/03 00:52:27;;;;;;;0.82;0.40;;;11.60;99.90;;;;;;5071819;28;20305;-77
2022/11/03 00:54:54;;;;;;;1.30;1.05;;;11.60;99.90;;;;;;5072041;28;20194;-76
2022/11/03 00:57:21;;;;;;;0.50;0.40;;;11.70;99.90;;;;;;5071481;28;20727;-78
2022/11/03 00:59:49;;;;;;;1.73;1.63;;;11.60;99.90;;;;;;5071793;28;20285;-77
2022/11/03 01:02:16;;;;;;;0.60;0.50;;;11.60;99.90;;;;;;5075766;28;20218;-77
2022/11/03 01:07:27;;;;;;;0.50;0.40;;;11.60;99.90;;;;;;5075309;28;20570;-77
2022/11/03 01:09:53;;;;;;;3.30;0.60;;;11.70;99.90;;;;;;5075830;28;20200;-77
2022/11/03 01:12:20;;;;;;;1.07;1.07;;;11.70;99.90;;;;;;5075368;28;20217;-77
2022/11/03 01:14:50;;;;;;;5.40;0.60;;;11.60;99.90;;;;;;5075115;28;20516;-76
2022/11/03 01:17:19;;;;;;;0.50;0.38;;;11.70;99.90;;;;;;5075721;28;20280;-76
2022/11/03 01:19:46;;;;;;;5.97;1.80;;;11.60;99.90;;;;;;5075912;28;20194;-77
2022/11/03 01:22:15;;;;;;;1.45;1.05;;;11.60;99.90;;;;;;5074865;28;20263;-77
2022/11/03 01:24:42;;;;;;;0.50;0.40;;;11.70;99.90;;;;;;5076059;28;20198;-77
2022/11/03 01:27:09;;;;;;;0.60;0.40;;;11.60;99.90;;;;;;5075495;28;20194;-76
2022/11/03 01:29:36;;;;;;;0.50;0.40;;;11.70;99.90;;;;;;5075052;28;20289;-77
2022/11/03 01:32:05;;;;;;;0.52;0.40;;;11.70;99.90;;;;;;5079279;28;20878;-77
2022/11/03 01:34:32;;;;;;;0.55;0.40;;;11.60;99.90;;;;;;5074065;28;20285;-77
2022/11/03 01:36:58;;;;;;;1.60;1.20;;;11.60;99.90;;;;;;5073979;28;20292;-77
2022/11/03 01:39:25;;;;;;;0.70;0.50;;;11.60;99.90;;;;;;5074441;28;20544;-76
2022/11/03 01:41:53;;;;;;;0.50;0.35;;;11.60;99.90;;;;;;5074187;28;20249;-77
2022/11/03 01:44:31;;;;;;;0.60;0.55;;;11.50;99.90;;;;;;5073804;28;20218;-77
2022/11/03 01:47:06;;;;;;;1.02;0.70;;;11.50;99.90;;;;;;5074213;28;20638;-76
2022/11/03 01:49:38;;;;;;;0.55;0.45;;;11.50;99.90;;;;;;5073374;28;20563;-76
2022/11/03 01:52:09;;;;;;;0.85;0.80;;;11.50;99.90;;;;;;5074270;28;20301;-76
2022/11/03 01:54:38;;;;;;;0.50;0.40;;;11.50;99.90;;;;;;5074381;28;20194;-77
2022/11/03 01:57:08;;;;;;;0.50;0.40;;;11.40;99.90;;;;;;5073800;28;20217;-77
2022/11/03 01:59:36;;;;;;;1.30;1.10;;;11.40;99.90;;;;;;5074145;28;20999;-77
2022/11/03 02:02:04;;;;;;;0.50;0.40;;;11.30;99.90;;;;;;5074400;28;20230;-77
2022/11/03 02:04:34;;;;;;;0.60;0.50;;;11.30;99.90;;;;;;5074051;28;20311;-77
2022/11/03 02:07:11;;;;;;;1.98;0.98;;;11.40;99.90;;;;;;5073795;28;20285;-77
2022/11/03 02:09:38;;;;;;;2.22;0.63;;;11.40;99.90;;;;;;5073645;28;20200;-77
2022/11/03 02:12:08;;;;;;;1.77;1.48;;;11.40;99.90;;;;;;5073826;28;20305;-77
2022/11/03 02:14:39;;;;;;;11.10;1.43;;;11.40;99.90;;;;;;5073258;28;20289;-77
2022/11/03 02:17:52;;;;;;;1.70;1.50;;;11.40;99.90;;;;;;5076153;28;20458;-77
2022/11/03 02:20:24;;;;;;;0.83;0.60;;;11.40;99.90;;;;;;5073400;28;20509;-77
2022/11/03 02:23:04;;;;;;;4.30;1.10;;;11.40;99.90;;;;;;5073935;28;20557;-77
2022/11/03 02:25:44;;;;;;;0.97;0.97;;;11.40;99.90;;;;;;5073567;28;20331;-76
2022/11/03 02:28:12;;;;;;;0.50;0.40;;;11.40;99.90;;;;;;5073660;28;20471;-77
2022/11/03 02:30:43;;;;;;;1.70;0.80;;;11.40;99.90;;;;;;5073535;28;20297;-77
2022/11/03 02:33:20;;;;;;;1.17;0.90;;;11.40;99.90;;;;;;5073417;28;20547;-77
2022/11/03 02:35:52;;;;;;;0.90;0.60;;;11.40;99.90;;;;;;5073033;28;20515;-77
2022/11/03 02:38:22;;;;;;;0.50;0.40;;;11.40;99.90;;;;;;5073483;28;20962;-77
2022/11/03 02:40:54;;;;;;;0.50;0.50;;;11.40;99.90;;;;;;5073834;28;20311;-77
2022/11/03 02:43:23;;;;;;;0.50;0.50;;;11.40;99.90;;;;;;5073544;28;20555;-77
2022/11/03 02:45:52;;;;;;;0.50;0.40;;;11.40;99.90;;;;;;5073198;28;20527;-76
2022/11/03 02:48:19;;;;;;;0.50;0.40;;;11.40;99.90;;;;;;5073498;28;20443;-77
2022/11/03 02:50:48;;;;;;;0.80;0.70;;;11.40;99.90;;;;;;5072917;28;20460;-77
2022/11/03 02:53:16;;;;;;;1.17;1.17;;;11.30;99.90;;;;;;5073521;28;20218;-77
2022/11/03 02:55:49;;;;;;;24.47;1.00;;;11.40;99.90;;;;;;5073311;28;20523;-77
2022/11/03 02:58:24;;;;;;;0.50;0.40;;;11.40;99.90;;;;;;5073294;28;20437;-77
2022/11/03 03:00:55;;;;;;;0.50;0.40;;;11.40;99.90;;;;;;5073117;28;20542;-77
2022/11/03 03:03:26;;;;;;;1.60;1.23;;;11.40;99.90;;;;;;5073359;28;20456;-76
2022/11/03 03:05:58;;;;;;;0.70;0.65;;;11.40;99.90;;;;;;5073169;28;20188;-77
2022/11/03 03:08:26;;;;;;;1.15;1.05;;;11.40;99.90;;;;;;5072785;28;20230;-75
2022/11/03 03:10:54;;;;;;;0.50;0.40;;;11.40;99.90;;;;;;5073461;28;20242;-77
2022/11/03 03:13:24;;;;;;;1.35;1.25;;;11.40;99.90;;;;;;5072922;28;20305;-77
2022/11/03 03:16:04;;;;;;;1.53;1.43;;;11.40;99.90;;;;;;5072876;28;20304;-77
2022/11/03 03:18:41;;;;;;;0.70;0.60;;;11.50;99.90;;;;;;5072816;28;20443;-77
2022/11/03 03:21:13;;;;;;;0.60;0.50;;;11.50;99.90;;;;;;5072645;28;20236;-77
2022/11/03 03:23:48;;;;;;;2.50;0.60;;;11.50;99.90;;;;;;5072541;28;20429;-77
2022/11/03 03:26:20;;;;;;;4.72;2.05;;;11.50;99.90;;;;;;5072357;28;20482;-77
2022/11/03 03:28:53;;;;;;;0.50;0.40;;;11.50;99.90;;;;;;5072900;28;20277;-77
2022/11/03 03:31:22;;;;;;;0.50;0.40;;;11.50;99.90;;;;;;5072467;28;20758;-77
2022/11/03 03:33:52;;;;;;;0.90;0.70;;;11.50;99.90;;;;;;5072378;28;20559;-75
2022/11/03 03:36:21;;;;;;;1.43;0.50;;;11.50;99.90;;;;;;5072239;28;20240;-77
2022/11/03 03:38:50;;;;;;;0.50;0.50;;;11.50;99.90;;;;;;5072473;28;20548;-77
2022/11/03 03:41:21;;;;;;;7.68;1.08;;;11.50;99.90;;;;;;5073173;28;20297;-77
2022/11/03 03:43:52;;;;;;;0.50;0.40;;;11.50;99.90;;;;;;5073424;28;20174;-77
2022/11/03 03:46:22;;;;;;;0.80;0.55;;;11.50;99.90;;;;;;5073345;28;20464;-77
2022/11/03 03:48:49;;;;;;;0.60;0.50;;;11.50;99.90;;;;;;5074621;28;20236;-78
2022/11/03 03:51:19;;;;;;;0.50;0.40;;;11.50;99.90;;;;;;5073235;28;20310;-77
2022/11/03 03:53:51;;;;;;;0.50;0.47;;;11.50;99.90;;;;;;5073881;28;20202;-77
2022/11/03 03:56:21;;;;;;;0.50;0.40;;;11.60;99.90;;;;;;5073913;28;20470;-77
2022/11/03 03:58:49;;;;;;;0.50;0.40;;;11.60;99.90;;;;;;5072878;28;20685;-77
2022/11/03 04:01:16;;;;;;;0.50;0.40;;;11.60;99.90;;;;;;5072401;28;20224;-77
2022/11/03 04:03:42;;;;;;;0.50;0.40;;;11.60;99.90;;;;;;5072618;28;20200;-77
2022/11/03 04:06:09;;;;;;;0.60;0.40;;;11.60;99.90;;;;;;5072897;28;20638;-77
2022/11/03 04:08:36;;;;;;;1.30;1.20;;;11.60;99.90;;;;;;5072446;28;20285;-77
2022/11/03 04:22:16;;;;;;;1.27;1.08;;;11.70;99.90;;;;;;5074781;28;20224;-77
2022/11/03 04:24:44;;;;;;;0.50;0.50;;;11.80;99.90;;;;;;5074999;28;20242;-78
2022/11/03 04:27:27;;;;;;;0.50;0.40;;;11.90;99.90;;;;;;5076535;28;20289;-77
2022/11/03 04:30:02;;;;;;;1.15;1.05;;;11.80;99.90;;;;;;5075014;28;20628;-77
2022/11/03 04:32:29;;;;;;;0.50;0.40;;;11.90;99.90;;;;;;5074961;28;20217;-78
2022/11/03 04:34:56;;;;;;;2.92;0.70;;;11.90;99.90;;;;;;5076151;28;20209;-78
2022/11/03 04:37:23;;;;;;;0.60;0.50;;;11.90;99.90;;;;;;5077725;28;20197;-78
2022/11/03 04:39:50;;;;;;;0.60;0.50;;;11.90;99.90;;;;;;5077839;28;20194;-77
2022/11/03 04:42:18;;;;;;;0.50;0.50;;;11.90;99.90;;;;;;5076278;28;20304;-76
2022/11/03 04:44:46;;;;;;;0.50;0.40;;;11.90;99.90;;;;;;5076142;28;20289;-77
2022/11/03 04:47:17;;;;;;;0.50;0.40;;;11.90;99.90;;;;;;5076258;28;20374;-77
2022/11/03 04:49:44;;;;;;;0.50;0.40;;;11.90;99.90;;;;;;5076567;28;20471;-78
2022/11/03 04:52:16;;;;;;;3.00;2.70;;;11.90;99.90;;;;;;5076897;28;20659;-78
2022/11/03 04:54:43;;;;;;;0.77;0.50;;;12.00;99.90;;;;;;5075977;28;20217;-78
2022/11/03 04:57:13;;;;;;;0.50;0.40;;;11.90;99.90;;;;;;5076283;28;20194;-77
2022/11/03 04:59:40;;;;;;;0.50;0.40;;;12.00;99.90;;;;;;5076573;28;20439;-77
2022/11/03 05:02:13;;;;;;;0.50;0.40;;;11.90;99.90;;;;;;5076712;28;20241;-77
2022/11/03 05:04:42;;;;;;;0.50;0.40;;;11.90;99.90;;;;;;5075981;28;20175;-77
2022/11/03 05:07:22;;;;;;;0.60;0.50;;;12.00;99.90;;;;;;5076090;28;20285;-77
2022/11/03 05:09:50;;;;;;;0.50;0.40;;;11.90;99.90;;;;;;5075900;28;20512;-78
2022/11/03 05:12:17;;;;;;;0.70;0.50;;;11.90;99.90;;;;;;5077040;28;20636;-77
2022/11/03 05:14:44;;;;;;;0.50;0.40;;;11.90;99.90;;;;;;5076195;28;20472;-78
2022/11/03 05:17:22;;;;;;;5.50;1.70;;;11.90;99.90;;;;;;5076552;28;20269;-78
2022/11/03 05:19:54;;;;;;;0.50;0.40;;;11.90;99.90;;;;;;5076973;28;20194;-78
2022/11/03 05:22:22;;;;;;;5.28;0.68;;;11.90;99.90;;;;;;5076722;28;20329;-77
2022/11/03 05:24:55;;;;;;;0.50;0.40;;;11.90;99.90;;;;;;5076167;28;20276;-78
2022/11/03 05:27:23;;;;;;;0.60;0.50;;;11.90;99.90;;;;;;5076197;28;20229;-78
2022/11/03 05:29:53;;;;;;;2.15;1.75;;;11.90;99.90;;;;;;5074927;28;20204;-76
2022/11/03 05:32:24;;;;;;;0.75;0.75;;;11.90;99.90;;;;;;5074913;28;20213;-77
2022/11/03 05:34:55;;;;;;;0.80;0.60;;;11.90;99.90;;;;;;5073763;28;20214;-74
2022/11/03 05:37:27;;;;;;;1.40;1.40;;;11.90;99.90;;;;;;5074504;28;20467;-77
2022/11/03 05:39:57;;;;;;;0.60;0.50;;;11.90;99.90;;;;;;5073981;28;20206;-77
2022/11/03 05:42:34;;;;;;;0.80;0.63;;;11.90;99.90;;;;;;5074041;28;20213;-77
2022/11/03 05:45:04;;;;;;;0.60;0.50;;;11.90;99.90;;;;;;5073853;28;20194;-77
2022/11/03 05:47:36;;;;;;;0.50;0.40;;;11.90;99.90;;;;;;5074015;28;20621;-77
2022/11/03 05:50:15;;;;;;;1.27;0.53;;;11.90;99.90;;;;;;5073784;28;20268;-77
2022/11/03 05:52:44;;;;;;;8.03;1.13;;;11.90;99.90;;;;;;5073956;28;20503;-77
2022/11/03 05:55:24;;;;;;;0.50;0.40;;;11.90;99.90;;;;;;5073625;28;20490;-77
2022/11/03 05:57:52;;;;;;;0.50;0.40;;;12.00;99.90;;;;;;5074096;28;20420;-77
2022/11/03 06:00:27;;;;;;;0.50;0.40;;;12.00;99.90;;;;;;5073549;28;20437;-77
2022/11/03 06:02:55;;;;;;;1.57;1.47;;;12.00;99.90;;;;;;5073763;28;20478;-77
2022/11/03 06:05:25;;;;;;;2.87;1.07;;;12.00;99.90;;;;;;5073751;28;20432;-76
2022/11/03 06:07:54;;;;;;;0.50;0.40;;;12.00;99.90;;;;;;5073849;28;20535;-77
2022/11/03 06:10:25;;;;;;;1.13;0.67;;;12.00;99.90;;;;;;5074249;28;20561;-77
2022/11/03 06:12:55;;;;;;;3.50;1.90;;;12.10;99.90;;;;;;5073231;28;20420;-77
2022/11/03 06:15:29;;;;;;;0.50;0.40;;;12.00;99.90;;;;;;5073582;28;20815;-76
2022/11/03 06:17:57;;;;;;;0.50;0.43;;;12.00;99.90;;;;;;5063502;28;20472;-77
2022/11/03 06:20:25;;;;;;;3.80;0.70;;;12.00;99.90;;;;;;5066278;28;20534;-76
2022/11/03 06:22:54;;;;;;;0.50;0.40;;;12.00;99.90;;;;;;5073574;28;20438;-77
2022/11/03 06:26:01;;;;;;;0.50;0.40;;;12.10;99.90;;;;;;5063124;28;20194;-76
2022/11/03 06:28:31;;;;;;;0.70;0.70;;;12.10;99.90;;;;;;5051274;28;20449;-76
2022/11/03 06:30:58;;;;;;;0.50;0.40;;;12.00;99.90;;;;;;5053673;28;20223;-77
2022/11/03 06:33:27;;;;;;;12.60;0.80;;;12.00;99.90;;;;;;5052425;28;20538;-76
2022/11/03 06:35:59;;;;;;;0.73;0.70;;;12.10;99.90;;;;;;5052851;28;20447;-76
2022/11/03 06:38:29;;;;;;;0.63;0.63;;;12.00;99.90;;;;;;5053066;28;20422;-74
2022/11/03 06:40:58;;;;;;;1.00;0.80;;;12.10;99.90;;;;;;5052265;28;20453;-76
2022/11/03 06:43:30;;;;;;;0.50;0.40;;;12.10;99.90;;;;;;5052198;28;20297;-78
2022/11/03 06:45:58;;;;;;;1.87;0.70;;;12.10;99.90;;;;;;5052626;28;20414;-76
2022/11/03 06:48:27;;;;;;;2.30;1.13;;;12.10;99.90;;;;;;5052381;28;20528;-76
2022/11/03 06:50:57;;;;;;;0.50;0.40;;;12.10;99.90;;;;;;5051597;28;20459;-76
2022/11/03 06:53:27;;;;;;;0.60;0.40;;;12.20;99.90;;;;;;5052310;28;20207;-76
2022/11/03 06:55:55;;;;;;;0.80;0.80;;;12.20;99.90;;;;;;5052103;28;20556;-78
2022/11/03 06:58:26;;;;;;;6.70;1.47;;;12.20;99.90;;;;;;5051309;28;20463;-75
2022/11/03 07:00:57;;;;;;;3.40;1.02;;;12.30;99.90;;;;;;5052525;28;20465;-77
2022/11/03 07:03:29;;;;;;;0.60;0.50;;;12.30;99.90;;;;;;5051534;28;20293;-76
2022/11/03 07:06:00;;;;;;;2.45;2.17;;;12.30;99.90;;;;;;5052436;28;20438;-77
2022/11/03 07:08:29;;;;;;;0.50;0.50;;;12.30;99.90;;;;;;5052394;28;20221;-76
2022/11/03 07:11:04;;;;;;;4.93;1.13;;;12.30;99.90;;;;;;5052181;28;20456;-76
2022/11/03 07:13:34;;;;;;;0.50;0.40;;;12.30;99.90;;;;;;5051705;28;20486;-77
2022/11/03 07:16:01;;;;;;;1.90;0.80;;;12.30;99.90;;;;;;5051344;28;20564;-76
2022/11/03 07:18:31;;;;;;;0.60;0.60;;;12.30;99.90;;;;;;5052232;28;20198;-76
2022/11/03 07:21:06;;;;;;;1.43;0.40;;;12.30;99.90;;;;;;5051691;28;20471;-76
2022/11/03 07:23:33;;;;;;;0.60;0.50;;;12.40;99.90;;;;;;5051912;28;20760;-76
2022/11/03 07:26:01;;;;;;;0.97;0.93;;;12.40;99.90;;;;;;5051742;28;20519;-77
2022/11/03 07:28:32;;;;;;;0.60;0.50;;;12.40;99.90;;;;;;5051435;28;20437;-75
2022/11/03 07:31:01;;;;;;;0.50;0.40;;;12.40;99.90;;;;;;5051438;28;20224;-76
2022/11/03 07:33:31;;;;;;;0.80;0.60;;;12.50;99.90;;;;;;5051278;28;20444;-76
2022/11/03 07:36:00;;;;;;;0.50;0.40;;;12.50;99.90;;;;;;5051249;28;20921;-76
2022/11/03 07:38:29;;;;;;;0.70;0.50;;;12.60;99.90;;;;;;5051586;28;20449;-74
2022/11/03 07:40:57;;;;;;;0.60;0.60;;;12.70;99.90;;;;;;5051174;28;20461;-76
2022/11/03 07:43:30;;;;;;;0.60;0.50;;;12.90;99.90;;;;;;5052118;28;20441;-76
2022/11/03 07:45:58;;;;;;;1.03;1.03;;;13.20;99.90;;;;;;5051711;28;20422;-77
2022/11/03 07:48:27;;;;;;;0.53;0.40;;;13.40;99.90;;;;;;5052019;28;20445;-77
2022/11/03 07:50:56;;;;;;;0.63;0.63;;;13.80;99.90;;;;;;5051551;28;21002;-77
2022/11/03 07:53:35;;;;;;;0.50;0.40;;;14.50;99.90;;;;;;5052237;28;20524;-76
2022/11/03 07:56:13;;;;;;;0.50;0.40;;;15.60;99.90;;;;;;5050971;28;20553;-77
2022/11/03 07:58:41;;;;;;;0.60;0.50;;;16.50;99.90;;;;;;5051853;28;20510;-77
2022/11/03 08:01:22;;;;;;;0.50;0.40;;;16.70;99.90;;;;;;5051466;28;20545;-77
2022/11/03 08:03:49;;;;;;;0.50;0.40;;;16.60;99.90;;;;;;5051686;28;20429;-77
2022/11/03 08:06:16;;;;;;;0.60;0.40;;;16.70;99.90;;;;;;5051437;28;20527;-77
2022/11/03 08:08:44;;;;;;;0.93;0.83;;;16.80;99.90;;;;;;5051904;28;20776;-77
2022/11/03 08:11:11;;;;;;;3.73;0.40;;;17.00;99.90;;;;;;5051522;28;20453;-77
2022/11/03 08:13:38;;;;;;;0.60;0.60;;;17.20;99.90;;;;;;5051318;28;20473;-77
2022/11/03 08:16:05;;;;;;;1.07;0.60;;;16.80;99.90;;;;;;5051308;28;20481;-77
2022/11/03 08:18:32;;;;;;;0.80;0.70;;;16.60;99.90;;;;;;5052476;28;20449;-77
2022/11/03 08:20:59;;;;;;;0.50;0.40;;;16.20;99.90;;;;;;5051986;28;20476;-77
2022/11/03 08:23:25;;;;;;;0.60;0.60;;;15.90;99.90;;;;;;5051351;28;20443;-77
2022/11/03 08:25:54;;;;;;;2.23;0.73;;;15.30;99.90;;;;;;5051968;28;20806;-77
2022/11/03 08:28:20;;;;;;;0.50;0.30;;;14.90;99.90;;;;;;5051154;28;20985;-77
2022/11/03 08:30:47;;;;;;;0.50;0.40;;;14.60;99.90;;;;;;5051859;28;20465;-77
2022/11/03 08:33:14;;;;;;;3.60;1.20;;;14.40;99.90;;;;;;5052035;28;20540;-77
2022/11/03 08:35:41;;;;;;;0.50;0.40;;;14.20;99.90;;;;;;5050973;28;20468;-78
2022/11/03 08:38:08;;;;;;;2.03;1.93;;;14.20;99.90;;;;;;5051707;28;20476;-78
2022/11/03 08:40:34;;;;;;;0.60;0.50;;;14.10;99.90;;;;;;5051768;28;20444;-78
2022/11/03 08:43:03;;;;;;;1.37;0.60;;;14.10;99.90;;;;;;5051635;28;20445;-78
2022/11/03 08:45:30;;;;;;;1.43;0.90;;;14.20;99.90;;;;;;5051438;28;20843;-77
2022/11/03 08:47:57;;;;;;;1.03;0.93;;;14.20;99.90;;;;;;5051076;28;20973;-77
2022/11/03 08:50:24;;;;;;;0.80;0.57;;;14.30;99.90;;;;;;5051332;28;20968;-77
2022/11/03 08:52:51;;;;;;;0.60;0.40;;;14.40;99.90;;;;;;5051930;28;20865;-77
2022/11/03 08:55:18;;;;;;;0.67;0.67;;;14.30;99.90;;;;;;5051479;28;20469;-77
2022/11/03 08:57:45;;;;;;;0.80;0.60;;;14.50;99.90;;;;;;5051064;28;20476;-78
2022/11/03 09:00:15;;;;;;;0.50;0.50;;;14.50;99.90;;;;;;5052562;28;20517;-78
2022/11/03 09:02:42;;;;;;;0.50;0.40;;;14.50;99.90;;;;;;5051688;28;20460;-77
2022/11/03 09:05:11;;;;;;;0.60;0.40;;;14.70;99.90;;;;;;5051042;28;20440;-78
2022/11/03 09:07:38;;;;;;;0.50;0.40;;;14.80;99.90;;;;;;5051116;28;20510;-78
2022/11/03 09:10:06;;;;;;;15.87;2.53;;;14.90;99.90;;;;;;5051179;28;20807;-78
2022/11/03 09:12:33;;;;;;;0.50;0.40;;;14.80;99.90;;;;;;5051415;28;20488;-78
2022/11/03 09:15:00;;;;;;;2.50;0.90;;;14.80;99.90;;;;;;5051152;28;20562;-78
2022/11/03 09:17:28;;;;;;;0.50;0.40;;;14.90;99.90;;;;;;5051641;28;20433;-77
2022/11/03 09:19:55;;;;;;;1.47;1.10;;;14.90;99.90;;;;;;5050784;28;20548;-78
2022/11/03 09:22:22;;;;;;;9.43;1.53;;;14.80;99.90;;;;;;5053338;28;20473;-75
2022/11/03 09:24:49;;;;;;;1.43;0.50;;;14.80;99.90;;;;;;5054234;28;20443;-78
2022/11/03 09:27:16;;;;;;;1.80;0.97;;;14.80;99.90;;;;;;5055680;28;20439;-76
2022/11/03 09:29:42;;;;;;;9.33;0.80;;;14.90;99.90;;;;;;5054828;28;20472;-78
2022/11/03 09:32:10;;;;;;;1.00;0.90;;;15.00;99.90;;;;;;5054532;28;20538;-78
2022/11/03 09:34:38;;;;;;;8.40;1.13;;;15.10;99.90;;;;;;5054766;28;20807;-78
2022/11/03 09:37:05;;;;;;;2.27;1.97;;;15.20;99.90;;;;;;5054419;28;20437;-78
2022/11/03 09:39:32;;;;;;;0.70;0.50;;;15.10;99.90;;;;;;5055191;28;20436;-77
2022/11/03 09:42:02;;;;;;;0.60;0.43;;;15.10;99.90;;;;;;5054913;28;20461;-77
2022/11/03 09:44:29;;;;;;;0.80;0.70;;;15.10;99.90;;;;;;5054486;28;20518;-77
2022/11/03 09:46:56;;;;;;;1.43;1.33;;;15.20;99.90;;;;;;5055193;28;20439;-78
2022/11/03 09:49:23;;;;;;;0.50;0.40;;;15.10;99.90;;;;;;5100688;22;20485;-76
2022/11/03 09:51:52;;;;;;;1.43;0.73;;;15.20;99.90;;;;;;5105128;28;20462;-76
2022/11/03 09:54:20;;;;;;;1.37;0.80;;;15.20;99.90;;;;;;5113870;28;20480;-76
2022/11/03 09:56:47;;;;;;;0.80;0.50;;;15.30;99.90;;;;;;5113822;28;20485;-76
2022/11/03 09:59:16;;;;;;;0.73;0.73;;;15.30;99.90;;;;;;5113849;28;20457;-75
2022/11/03 10:01:47;;;;;;;1.80;1.70;;;15.30;99.90;;;;;;5113871;28;20541;-76
2022/11/03 10:04:14;;;;;;;1.43;1.10;;;15.30;99.90;;;;;;5113241;28;20545;-76
2022/11/03 10:06:41;;;;;;;1.03;0.53;;;15.40;99.90;;;;;;5114174;28;20468;-76
2022/11/03 10:09:16;;;;;;;2.13;0.60;;;15.40;99.90;;;;;;5113711;28;20454;-76
2022/11/03 10:11:45;;;;;;;0.60;0.50;;;15.30;99.90;;;;;;5113237;28;20420;-73
2022/11/03 10:14:15;;;;;;;0.57;0.50;;;15.40;99.90;;;;;;5112896;28;20477;-76
2022/11/03 10:16:43;;;;;;;1.63;1.57;;;15.40;99.90;;;;;;5113388;28;20476;-76
2022/11/03 10:19:13;;;;;;;0.50;0.50;;;15.30;99.90;;;;;;5113670;28;20485;-75
2022/11/03 10:21:42;;;;;;;0.63;0.50;;;15.30;99.90;;;;;;5113583;28;20442;-78
2022/11/03 10:24:13;;;;;;;5.80;1.03;;;15.40;99.90;;;;;;5112623;28;20541;-77
2022/11/03 10:26:45;;;;;;;0.60;0.40;;;15.40;99.90;;;;;;5113618;28;20513;-77
2022/11/03 10:29:21;;;;;;;0.50;0.40;;;15.40;99.90;;;;;;5113175;28;20538;-74
2022/11/03 10:31:50;;;;;;;0.50;0.40;;;15.40;99.90;;;;;;5112997;28;20856;-77
2022/11/03 10:34:31;;;;;;;0.50;0.30;;;15.40;99.90;;;;;;5112960;28;20438;-77
2022/11/03 10:37:20;;;;;;;1.33;0.80;;;15.50;99.90;;;;;;5112847;28;20962;-77
2022/11/03 10:39:49;;;;;;;0.50;0.40;;;15.40;99.90;;;;;;5113465;28;20454;-77
2022/11/03 10:42:19;;;;;;;0.80;0.67;;;15.50;99.90;;;;;;5112814;28;20522;-74
2022/11/03 10:44:47;;;;;;;0.60;0.60;;;15.40;99.90;;;;;;5112565;28;20435;-78
2022/11/03 10:47:26;;;;;;;0.60;0.40;;;15.40;99.90;;;;;;5112858;28;20472;-76
2022/11/03 10:49:54;;;;;;;0.50;0.40;;;15.50;99.90;;;;;;5112379;28;20490;-78
2022/11/03 10:52:24;;;;;;;1.50;1.40;;;15.50;99.90;;;;;;5112931;28;20438;-77
2022/11/03 10:54:54;;;;;;;2.30;2.20;;;15.60;99.90;;;;;;5112500;28;20442;-77
2022/11/03 10:57:22;;;;;;;0.80;0.60;;;15.50;99.90;;;;;;5112840;28;20528;-77
2022/11/03 10:59:51;;;;;;;0.50;0.33;;;15.50;99.90;;;;;;5112731;28;20557;-78
2022/11/03 11:02:20;;;;;;;0.60;0.40;;;15.60;99.90;;;;;;5112790;28;20446;-76
2022/11/03 11:04:49;;;;;;;1.13;0.50;;;15.60;99.90;;;;;;5112022;28;20521;-77
2022/11/03 11:07:22;;;;;;;0.50;0.40;;;15.60;99.90;;;;;;5112896;28;20438;-77
2022/11/03 11:09:49;;;;;;;2.70;0.90;;;15.60;99.90;;;;;;5112944;28;20821;-77
2022/11/03 11:12:19;;;;;;;0.50;0.40;;;15.80;99.90;;;;;;5112609;28;21009;-77
2022/11/03 11:14:56;;;;;;;3.00;0.70;;;15.80;99.90;;;;;;5112862;28;21014;-78
2022/11/03 11:17:42;;;;;;;1.70;0.73;;;15.90;99.90;;;;;;5112529;28;20445;-75
2022/11/03 11:20:40;;;;;;;3.70;0.90;;;15.90;99.90;;;;;;5112159;28;20482;-77
2022/11/03 11:23:51;;;;;;;0.60;0.50;;;16.10;99.90;;;;;;5112645;28;20900;-78
2022/11/03 11:26:32;;;;;;;0.60;0.43;;;16.30;99.90;;;;;;5113068;28;20421;-77
2022/11/03 11:29:45;;;;;;;2.57;0.47;;;16.60;99.90;;;;;;5113488;28;20496;-76
2022/11/03 11:32:50;;;;;;;0.50;0.40;;;16.60;99.90;;;;;;5113013;28;20418;-78
2022/11/03 11:35:39;;;;;;;0.97;0.87;;;16.70;99.90;;;;;;5112315;28;20542;-75
2022/11/03 11:38:43;;;;;;;0.50;0.40;;;16.90;99.90;;;;;;5112147;28;20490;-77
2022/11/03 11:41:10;;;;;;;0.50;0.40;;;17.10;99.90;;;;;;5111945;28;20525;-75
2022/11/03 11:43:37;;;;;;;1.07;0.70;;;17.50;99.90;;;;;;5111953;28;20441;-75
2022/11/03 11:46:38;;;;;;;0.50;0.40;;;17.70;99.90;;;;;;5111298;28;20931;-75
2022/11/03 11:49:18;;;;;;;2.50;2.40;;;17.40;99.90;;;;;;5112251;28;20557;-78
2022/11/03 11:51:46;;;;;;;0.50;0.40;;;17.40;99.90;;;;;;5112312;28;20521;-78
2022/11/03 11:54:17;;;;;;;1.00;0.90;;;17.20;99.90;;;;;;5111698;28;20435;-75
2022/11/03 11:56:45;;;;;;;0.60;0.40;;;17.10;99.90;;;;;;5112707;28;20469;-75
2022/11/03 11:59:19;;;;;;;0.50;0.40;;;17.10;99.90;;;;;;5112416;28;20539;-73
2022/11/03 12:01:50;;;;;;;1.00;0.60;;;16.90;99.90;;;;;;5111859;28;20502;-75
2022/11/03 12:04:20;;;;;;;0.60;0.47;;;16.60;99.90;;;;;;5111509;28;20422;-75
2022/11/03 12:06:48;;;;;;;0.90;0.80;;;16.30;99.90;;;;;;5111954;28;21027;-75
2022/11/03 12:09:17;;;;;;;0.60;0.43;;;16.10;99.90;;;;;;5112273;28;20922;-74
2022/11/03 12:11:46;;;;;;;0.50;0.37;;;16.00;99.90;;;;;;5111583;28;20878;-76
2022/11/03 12:14:24;;;;;;;0.50;0.30;;;16.00;99.90;;;;;;5111235;28;20532;-75
2022/11/03 12:16:51;;;;;;;0.60;0.50;;;16.10;99.90;;;;;;5111511;28;21089;-75
2022/11/03 12:19:39;;;;;;;0.50;0.40;;;15.90;99.90;;;;;;5111981;28;20493;-78
2022/11/03 12:22:10;;;;;;;0.50;0.40;;;15.70;99.90;;;;;;5111920;28;20431;-78
2022/11/03 12:24:49;;;;;;;0.57;0.40;;;15.70;99.90;;;;;;5111622;28;21012;-79
2022/11/03 12:27:35;;;;;;;0.60;0.50;;;15.60;99.90;;;;;;5111978;28;20800;-77
2022/11/03 12:30:07;;;;;;;0.97;0.87;;;15.60;99.90;;;;;;5111763;28;20519;-76
2022/11/03 12:32:34;;;;;;;0.50;0.40;;;15.60;99.90;;;;;;5111510;28;20450;-76
2022/11/03 12:35:01;;;;;;;0.50;0.40;;;15.60;99.90;;;;;;5111726;28;20526;-75
2022/11/03 12:37:29;;;;;;;0.60;0.60;;;15.70;99.90;;;;;;5111251;28;20505;-77
2022/11/03 12:39:56;;;;;;;0.53;0.40;;;15.80;99.90;;;;;;5111344;28;20482;-77
2022/11/03 12:42:23;;;;;;;0.50;0.40;;;15.80;99.90;;;;;;5111416;28;20536;-76
2022/11/03 12:44:50;;;;;;;0.60;0.60;;;15.90;99.90;;;;;;5111641;28;20460;-76
2022/11/03 12:47:17;;;;;;;0.70;0.50;;;15.90;99.90;;;;;;5111389;28;20515;-76
2022/11/03 12:49:44;;;;;;;3.13;1.23;;;15.90;99.90;;;;;;5111295;28;20550;-75
2022/11/03 12:52:11;;;;;;;0.80;0.80;;;15.80;99.90;;;;;;5111105;28;20525;-76
2022/11/03 12:54:40;;;;;;;6.67;0.80;;;15.80;99.90;;;;;;5112280;28;20526;-76
2022/11/03 12:57:08;;;;;;;0.60;0.50;;;15.90;99.90;;;;;;5113247;28;20474;-76
2022/11/03 12:59:35;;;;;;;0.60;0.50;;;15.80;99.90;;;;;;5115960;28;20458;-76
2022/11/03 13:02:01;;;;;;;1.57;0.90;;;15.70;99.90;;;;;;5115285;28;21013;-77
2022/11/03 13:04:28;;;;;;;0.60;0.40;;;15.60;99.90;;;;;;5115470;28;20442;-76
2022/11/03 13:06:55;;;;;;;2.93;2.00;;;15.60;99.90;;;;;;5115112;28;20530;-76
2022/11/03 13:09:22;;;;;;;0.60;0.50;;;15.60;99.90;;;;;;5115240;28;20496;-75
2022/11/03 13:14:34;;;;;;;9.83;0.77;;;15.50;99.90;;;;;;5114956;28;20982;-76
2022/11/03 13:17:02;;;;;;;0.90;0.90;;;15.50;99.90;;;;;;5115125;28;20470;-76
2022/11/03 13:19:29;;;;;;;3.23;1.40;;;15.40;99.90;;;;;;5114992;28;20971;-75
2022/11/03 13:21:56;;;;;;;0.50;0.40;;;15.30;99.90;;;;;;5115012;28;20517;-76